Time;durP1;ratioP1;P1;durP2;ratioP2;P2;SDS_P1;SDS_P2;PMS_P1;PMS_P2;Temp;Humidity;BMP_temperature;BMP_pressure;BME280_temperature;BME280_humidity;BME280_pressure;Samples;Min_cycle;Max_cycle;Signal;HPM_P1;HPM_P2
2021/01/28 00:00:32;;;;;;;18.43;12.73;;;;;;;;;;5097474;28;20561;-66
2021/01/28 00:02:59;;;;;;;17.90;11.47;;;;;;;;;;5097612;28;20483;-66
2021/01/28 00:05:28;;;;;;;20.73;13.13;;;;;;;;;;5097536;28;20456;-66
2021/01/28 00:07:55;;;;;;;17.03;12.20;;;;;;;;;;5097812;28;20438;-66
2021/01/28 00:10:22;;;;;;;19.50;13.20;;;;;;;;;;5097723;28;20444;-66
2021/01/28 00:12:50;;;;;;;17.20;12.40;;;;;;;;;;5097745;28;20471;-66
2021/01/28 00:15:18;;;;;;;15.33;11.80;;;;;;;;;;5097390;28;20470;-66
2021/01/28 00:17:46;;;;;;;17.60;12.13;;;;;;;;;;5097555;28;20447;-66
2021/01/28 00:20:15;;;;;;;18.77;12.67;;;;;;;;;;5097723;28;20439;-67
2021/01/28 00:22:43;;;;;;;18.97;13.77;;;;;;;;;;5097500;28;20515;-66
2021/01/28 00:25:11;;;;;;;17.90;12.37;;;;;;;;;;5097325;28;20888;-66
2021/01/28 00:27:38;;;;;;;17.50;12.70;;;;;;;;;;5097627;28;20526;-66
2021/01/28 00:30:06;;;;;;;18.97;12.63;;;;;;;;;;5097047;28;20801;-66
2021/01/28 00:32:33;;;;;;;16.67;12.30;;;;;;;;;;5097414;28;20468;-66
2021/01/28 00:35:00;;;;;;;20.33;13.63;;;;;;;;;;5097437;28;20543;-66
2021/01/28 00:37:27;;;;;;;21.00;12.97;;;;;;;;;;5097624;28;20470;-66
2021/01/28 00:39:57;;;;;;;20.43;12.03;;;;;;;;;;5097014;28;20490;-66
2021/01/28 00:42:24;;;;;;;24.83;13.70;;;;;;;;;;5098736;28;20522;-66
2021/01/28 00:44:51;;;;;;;24.07;12.97;;;;;;;;;;5100839;28;20463;-66
2021/01/28 00:47:18;;;;;;;20.83;13.50;;;;;;;;;;5101240;28;20807;-66
2021/01/28 00:49:45;;;;;;;21.37;14.17;;;;;;;;;;5101103;28;20448;-66
2021/01/28 00:52:12;;;;;;;20.97;12.90;;;;;;;;;;5100958;28;20448;-66
2021/01/28 00:54:39;;;;;;;24.07;14.93;;;;;;;;;;5100784;28;20521;-66
2021/01/28 00:57:07;;;;;;;20.87;14.03;;;;;;;;;;5101009;28;20443;-67
2021/01/28 00:59:34;;;;;;;17.27;12.80;;;;;;;;;;5100534;28;20458;-66
2021/01/28 01:02:04;;;;;;;17.03;12.50;;;;;;;;;;5100777;28;20463;-66
2021/01/28 01:04:32;;;;;;;19.63;14.07;;;;;;;;;;5100773;28;20459;-66
2021/01/28 01:06:59;;;;;;;18.97;12.83;;;;;;;;;;5100913;28;20447;-66
2021/01/28 01:09:26;;;;;;;18.43;14.77;;;;;;;;;;5100400;28;20448;-66
2021/01/28 01:11:54;;;;;;;20.40;13.63;;;;;;;;;;5100666;28;20455;-66
2021/01/28 01:14:22;;;;;;;19.10;12.60;;;;;;;;;;5100417;28;20471;-66
2021/01/28 01:16:49;;;;;;;18.93;13.97;;;;;;;;;;5100611;28;20529;-66
2021/01/28 01:19:16;;;;;;;19.77;13.13;;;;;;;;;;5100864;28;20444;-66
2021/01/28 01:21:43;;;;;;;20.13;13.67;;;;;;;;;;5100694;28;20452;-66
2021/01/28 01:24:11;;;;;;;17.53;13.43;;;;;;;;;;5100462;28;20548;-66
2021/01/28 01:26:38;;;;;;;17.03;11.97;;;;;;;;;;5100157;28;20661;-66
2021/01/28 01:29:04;;;;;;;17.33;12.13;;;;;;;;;;5100046;28;20462;-67
2021/01/28 01:31:34;;;;;;;19.23;11.93;;;;;;;;;;5100113;28;20687;-66
2021/01/28 01:34:01;;;;;;;18.57;12.63;;;;;;;;;;5100088;28;20630;-66
2021/01/28 01:36:28;;;;;;;18.07;12.70;;;;;;;;;;5100205;28;20229;-66
2021/01/28 01:38:55;;;;;;;19.13;13.07;;;;;;;;;;5099908;28;20722;-66
2021/01/28 01:41:28;;;;;;;16.57;13.00;;;;;;;;;;5099811;28;20564;-67
2021/01/28 01:43:57;;;;;;;18.43;12.83;;;;;;;;;;5099939;28;20225;-66
2021/01/28 01:46:24;;;;;;;20.30;13.40;;;;;;;;;;5100024;28;20439;-67
2021/01/28 01:48:54;;;;;;;18.53;13.73;;;;;;;;;;5100191;28;20518;-66
2021/01/28 01:51:23;;;;;;;16.07;13.47;;;;;;;;;;5100003;28;20529;-66
2021/01/28 01:53:52;;;;;;;18.07;12.70;;;;;;;;;;5099705;28;20206;-66
2021/01/28 01:56:21;;;;;;;16.43;12.87;;;;;;;;;;5099802;28;20439;-66
2021/01/28 01:58:53;;;;;;;18.30;13.07;;;;;;;;;;5099945;28;20496;-66
2021/01/28 02:01:22;;;;;;;18.40;12.57;;;;;;;;;;5099791;28;20850;-66
2021/01/28 02:03:50;;;;;;;20.10;12.87;;;;;;;;;;5099487;28;20510;-66
2021/01/28 02:06:23;;;;;;;15.40;12.23;;;;;;;;;;5099732;28;20444;-66
2021/01/28 02:08:51;;;;;;;17.43;12.07;;;;;;;;;;5097718;28;20931;-67
2021/01/28 02:11:19;;;;;;;18.60;13.13;;;;;;;;;;5098402;28;20204;-66
2021/01/28 02:13:46;;;;;;;19.97;12.20;;;;;;;;;;5099139;28;20193;-66
2021/01/28 02:16:15;;;;;;;14.67;10.60;;;;;;;;;;5098741;28;20582;-66
2021/01/28 02:18:43;;;;;;;15.53;11.30;;;;;;;;;;5099200;28;20444;-66
2021/01/28 02:21:15;;;;;;;13.13;9.03;;;;;;;;;;5099290;28;20665;-66
2021/01/28 02:23:50;;;;;;;16.47;10.33;;;;;;;;;;5099024;28;20244;-66
2021/01/28 02:26:18;;;;;;;13.37;9.73;;;;;;;;;;5090846;28;20205;-66
2021/01/28 02:28:45;;;;;;;13.40;9.23;;;;;;;;;;5099155;28;20204;-66
2021/01/28 02:31:12;;;;;;;13.87;9.80;;;;;;;;;;5098797;28;20216;-66
2021/01/28 02:33:45;;;;;;;14.97;10.30;;;;;;;;;;5098798;28;20202;-66
2021/01/28 02:36:12;;;;;;;16.57;10.27;;;;;;;;;;5098726;28;20619;-66
2021/01/28 02:38:39;;;;;;;14.90;9.93;;;;;;;;;;5098829;28;20317;-66
2021/01/28 02:41:06;;;;;;;17.40;10.23;;;;;;;;;;5098954;28;20214;-67
2021/01/28 02:43:34;;;;;;;13.63;10.73;;;;;;;;;;5098964;28;20231;-66
2021/01/28 02:46:03;;;;;;;17.33;10.07;;;;;;;;;;5098673;28;20225;-66
2021/01/28 02:48:30;;;;;;;12.80;8.43;;;;;;;;;;5099022;28;20288;-66
2021/01/28 02:50:57;;;;;;;14.00;9.07;;;;;;;;;;5098886;28;20232;-67
2021/01/28 02:53:24;;;;;;;15.17;9.13;;;;;;;;;;5098559;28;20782;-67
2021/01/28 02:55:51;;;;;;;12.63;9.33;;;;;;;;;;5098711;28;20225;-66
2021/01/28 02:58:18;;;;;;;13.63;8.97;;;;;;;;;;5098412;28;20205;-66
2021/01/28 03:00:46;;;;;;;13.00;9.13;;;;;;;;;;5098242;28;20234;-66
2021/01/28 03:03:14;;;;;;;11.70;8.70;;;;;;;;;;5099053;28;20238;-67
2021/01/28 03:05:41;;;;;;;10.27;8.13;;;;;;;;;;5097854;28;20312;-67
2021/01/28 03:08:08;;;;;;;12.43;7.80;;;;;;;;;;5098296;28;20205;-67
2021/01/28 03:10:35;;;;;;;11.73;7.67;;;;;;;;;;5098505;28;20205;-67
2021/01/28 03:13:02;;;;;;;10.23;8.03;;;;;;;;;;5098234;28;20205;-67
2021/01/28 03:15:29;;;;;;;11.23;7.50;;;;;;;;;;5098098;28;20225;-67
2021/01/28 03:17:57;;;;;;;10.17;7.83;;;;;;;;;;5098213;28;20288;-67
2021/01/28 03:20:24;;;;;;;10.13;7.30;;;;;;;;;;5098236;28;20229;-67
2021/01/28 03:22:52;;;;;;;9.63;7.63;;;;;;;;;;5098100;28;20231;-67
2021/01/28 03:25:19;;;;;;;11.33;8.27;;;;;;;;;;5098315;28;20231;-67
2021/01/28 03:27:47;;;;;;;8.70;7.27;;;;;;;;;;5098212;28;20206;-66
2021/01/28 03:30:15;;;;;;;10.13;8.17;;;;;;;;;;5097899;28;20216;-67
2021/01/28 03:32:42;;;;;;;8.97;7.80;;;;;;;;;;5098582;28;20201;-67
2021/01/28 03:35:11;;;;;;;12.23;8.57;;;;;;;;;;5097766;28;20591;-67
2021/01/28 03:37:38;;;;;;;11.67;8.67;;;;;;;;;;5097935;28;20206;-66
2021/01/28 03:40:06;;;;;;;10.57;8.53;;;;;;;;;;5097831;28;20317;-67
2021/01/28 03:42:33;;;;;;;9.90;7.90;;;;;;;;;;5096779;28;20314;-67
2021/01/28 03:45:00;;;;;;;10.60;8.13;;;;;;;;;;5097472;28;20232;-67
2021/01/28 03:47:27;;;;;;;9.37;7.77;;;;;;;;;;5097888;28;20193;-67
2021/01/28 03:49:55;;;;;;;13.27;9.30;;;;;;;;;;5098000;28;20211;-66
2021/01/28 03:52:22;;;;;;;16.40;9.80;;;;;;;;;;5097781;28;20231;-67
2021/01/28 03:54:49;;;;;;;12.70;9.50;;;;;;;;;;5097837;28;20225;-67
2021/01/28 03:57:16;;;;;;;11.63;8.97;;;;;;;;;;5097948;28;20212;-66
2021/01/28 03:59:44;;;;;;;12.20;8.43;;;;;;;;;;5097391;28;20215;-67
2021/01/28 04:02:11;;;;;;;11.97;8.53;;;;;;;;;;5098001;28;20201;-66
2021/01/28 04:04:38;;;;;;;13.13;8.57;;;;;;;;;;5097758;28;20234;-67
2021/01/28 04:07:05;;;;;;;11.50;7.67;;;;;;;;;;5098053;28;20209;-66
2021/01/28 04:09:33;;;;;;;13.00;8.23;;;;;;;;;;5097629;28;20198;-66
2021/01/28 04:12:00;;;;;;;13.73;9.67;;;;;;;;;;5097701;28;20205;-67
2021/01/28 04:14:27;;;;;;;10.17;7.83;;;;;;;;;;5097607;28;20225;-67
2021/01/28 04:16:54;;;;;;;10.47;8.40;;;;;;;;;;5099702;28;20211;-67
2021/01/28 04:19:21;;;;;;;9.80;7.83;;;;;;;;;;5101910;28;20209;-67
2021/01/28 04:21:48;;;;;;;10.97;8.50;;;;;;;;;;5101455;28;20205;-67
2021/01/28 04:24:15;;;;;;;13.20;8.17;;;;;;;;;;5101388;28;20312;-67
2021/01/28 04:26:43;;;;;;;11.57;7.63;;;;;;;;;;5101305;28;20686;-67
2021/01/28 04:29:10;;;;;;;11.03;9.10;;;;;;;;;;5101411;28;20205;-67
2021/01/28 04:31:37;;;;;;;12.40;8.37;;;;;;;;;;5101558;28;20289;-67
2021/01/28 04:34:05;;;;;;;13.17;7.93;;;;;;;;;;5101451;28;20221;-67
2021/01/28 04:36:32;;;;;;;11.47;8.27;;;;;;;;;;5101409;28;20267;-67
2021/01/28 04:38:59;;;;;;;10.27;8.00;;;;;;;;;;5101239;28;20237;-67
2021/01/28 04:41:28;;;;;;;10.83;7.70;;;;;;;;;;5101211;28;20236;-67
2021/01/28 04:43:57;;;;;;;10.67;8.63;;;;;;;;;;5101443;28;20226;-67
2021/01/28 04:46:25;;;;;;;8.73;7.50;;;;;;;;;;5101122;28;20201;-67
2021/01/28 04:48:53;;;;;;;8.40;7.60;;;;;;;;;;5101327;28;20239;-66
2021/01/28 04:51:21;;;;;;;8.60;7.70;;;;;;;;;;5101148;28;20201;-67
2021/01/28 04:53:50;;;;;;;9.80;7.83;;;;;;;;;;5101189;28;20248;-67
2021/01/28 04:56:21;;;;;;;11.67;7.73;;;;;;;;;;5100968;28;20241;-66
2021/01/28 04:58:48;;;;;;;9.87;7.17;;;;;;;;;;5100975;28;20300;-67
2021/01/28 05:01:16;;;;;;;11.63;7.43;;;;;;;;;;5100746;28;20201;-66
2021/01/28 05:03:44;;;;;;;12.13;7.50;;;;;;;;;;5100704;28;20783;-67
2021/01/28 05:06:11;;;;;;;6.90;6.10;;;;;;;;;;5100499;28;20767;-67
2021/01/28 05:08:38;;;;;;;8.00;5.97;;;;;;;;;;5100670;28;20233;-66
2021/01/28 05:11:19;;;;;;;7.63;5.73;;;;;;;;;;5100818;28;20202;-67
2021/01/28 05:13:46;;;;;;;10.27;6.63;;;;;;;;;;5100512;28;20269;-66
2021/01/28 05:16:19;;;;;;;8.07;6.13;;;;;;;;;;5100441;28;20337;-66
2021/01/28 05:18:56;;;;;;;8.20;6.03;;;;;;;;;;5100448;28;20211;-66
2021/01/28 05:21:24;;;;;;;6.40;5.70;;;;;;;;;;5100706;28;20205;-66
2021/01/28 05:23:59;;;;;;;26.90;13.97;;;;;;;;;;5100287;28;20228;-66
2021/01/28 05:26:32;;;;;;;12.23;7.63;;;;;;;;;;5100496;28;20205;-66
2021/01/28 05:29:12;;;;;;;9.70;6.57;;;;;;;;;;5099344;28;20213;-66
2021/01/28 05:31:40;;;;;;;8.30;6.13;;;;;;;;;;5100538;28;20229;-66
2021/01/28 05:34:08;;;;;;;9.33;7.17;;;;;;;;;;5100271;28;20218;-66
2021/01/28 05:36:36;;;;;;;12.23;7.40;;;;;;;;;;5100097;28;20703;-66
2021/01/28 05:39:16;;;;;;;11.47;6.73;;;;;;;;;;5099831;28;20233;-66
2021/01/28 05:41:46;;;;;;;10.07;6.47;;;;;;;;;;5100070;28;20292;-66
2021/01/28 05:44:14;;;;;;;11.50;6.70;;;;;;;;;;5100352;28;20226;-66
2021/01/28 05:46:42;;;;;;;8.43;6.27;;;;;;;;;;5099886;28;20198;-66
2021/01/28 05:49:10;;;;;;;10.20;6.47;;;;;;;;;;5099945;28;20733;-66
2021/01/28 05:51:39;;;;;;;8.93;6.17;;;;;;;;;;5100085;28;20205;-66
2021/01/28 05:54:07;;;;;;;8.83;5.60;;;;;;;;;;5099892;28;20229;-66
2021/01/28 05:56:38;;;;;;;13.30;6.27;;;;;;;;;;5099831;28;20216;-66
2021/01/28 05:59:11;;;;;;;13.03;7.10;;;;;;;;;;5099568;28;20201;-66
2021/01/28 06:01:49;;;;;;;9.53;6.57;;;;;;;;;;5099522;28;20211;-66
2021/01/28 06:04:34;;;;;;;7.70;5.67;;;;;;;;;;5085659;28;20263;-66
2021/01/28 06:07:14;;;;;;;8.90;6.70;;;;;;;;;;5099470;28;20209;-66
2021/01/28 06:09:55;;;;;;;9.93;5.87;;;;;;;;;;5096118;28;20201;-66
2021/01/28 06:12:29;;;;;;;13.50;7.77;;;;;;;;;;5099377;28;20204;-66
2021/01/28 06:15:08;;;;;;;12.63;7.37;;;;;;;;;;5099008;28;20304;-66
2021/01/28 06:17:46;;;;;;;12.67;8.47;;;;;;;;;;5099256;28;20617;-66
2021/01/28 06:20:35;;;;;;;12.47;7.70;;;;;;;;;;5099145;28;20215;-66
2021/01/28 06:23:16;;;;;;;11.40;7.70;;;;;;;;;;5094290;28;20205;-66
2021/01/28 06:25:51;;;;;;;12.33;8.53;;;;;;;;;;5086456;28;20312;-67
2021/01/28 06:28:24;;;;;;;10.90;7.90;;;;;;;;;;5098830;28;20675;-66
2021/01/28 06:31:02;;;;;;;13.83;9.37;;;;;;;;;;5097654;28;20225;-67
2021/01/28 06:33:37;;;;;;;13.47;8.57;;;;;;;;;;5096396;28;20215;-67
2021/01/28 06:36:21;;;;;;;13.97;9.37;;;;;;;;;;5094012;28;20221;-67
2021/01/28 06:39:06;;;;;;;15.40;10.60;;;;;;;;;;5097612;28;20225;-67
2021/01/28 06:41:38;;;;;;;16.03;10.63;;;;;;;;;;5096169;28;20261;-67
2021/01/28 06:44:08;;;;;;;20.53;11.00;;;;;;;;;;5097215;28;20221;-67
2021/01/28 06:46:43;;;;;;;18.77;11.90;;;;;;;;;;5097838;28;20483;-68
2021/01/28 06:49:20;;;;;;;16.17;10.53;;;;;;;;;;5097653;28;20251;-67
2021/01/28 06:51:52;;;;;;;14.27;11.20;;;;;;;;;;5097302;28;20563;-67
2021/01/28 06:54:23;;;;;;;15.03;10.93;;;;;;;;;;5094754;28;20560;-69
2021/01/28 06:56:55;;;;;;;15.07;10.57;;;;;;;;;;5097575;28;20292;-68
2021/01/28 06:59:26;;;;;;;15.80;10.37;;;;;;;;;;5093967;28;20207;-68
2021/01/28 07:01:57;;;;;;;17.97;11.30;;;;;;;;;;5095803;28;20374;-70
2021/01/28 07:04:32;;;;;;;13.67;10.60;;;;;;;;;;5097084;28;20225;-69
2021/01/28 07:07:02;;;;;;;14.37;10.60;;;;;;;;;;5097439;28;20573;-69
2021/01/28 07:09:32;;;;;;;16.33;11.10;;;;;;;;;;5095279;28;20657;-69
2021/01/28 07:12:02;;;;;;;17.17;10.33;;;;;;;;;;5097886;28;20205;-70
2021/01/28 07:14:29;;;;;;;15.60;9.67;;;;;;;;;;5097744;28;20225;-70
2021/01/28 07:17:00;;;;;;;20.40;10.97;;;;;;;;;;5097439;28;20205;-70
2021/01/28 07:19:30;;;;;;;15.03;10.60;;;;;;;;;;5097558;28;20576;-70
2021/01/28 07:21:57;;;;;;;16.93;9.73;;;;;;;;;;5097658;28;20209;-69
2021/01/28 07:24:27;;;;;;;19.00;11.30;;;;;;;;;;5097364;28;20239;-69
2021/01/28 07:26:55;;;;;;;15.53;11.40;;;;;;;;;;5097309;28;20227;-69
2021/01/28 07:29:35;;;;;;;15.37;10.37;;;;;;;;;;5093699;28;20237;-69
2021/01/28 07:32:06;;;;;;;15.20;10.20;;;;;;;;;;5097155;28;20280;-69
2021/01/28 07:34:35;;;;;;;17.83;10.67;;;;;;;;;;5097196;28;20581;-69
2021/01/28 07:37:19;;;;;;;16.17;11.53;;;;;;;;;;5097076;28;20217;-70
2021/01/28 07:39:46;;;;;;;14.90;10.87;;;;;;;;;;5086905;28;20225;-68
2021/01/28 07:42:27;;;;;;;16.13;10.03;;;;;;;;;;5096881;28;20213;-69
2021/01/28 07:44:55;;;;;;;15.03;9.63;;;;;;;;;;5090358;28;20225;-69
2021/01/28 07:47:48;;;;;;;15.23;8.97;;;;;;;;;;5096292;28;20641;-70
2021/01/28 07:50:35;;;;;;;11.83;7.70;;;;;;;;;;5095375;28;20227;-69
2021/01/28 07:53:20;;;;;;;13.10;7.73;;;;;;;;;;5096968;28;21011;-70
2021/01/28 07:55:48;;;;;;;10.73;7.93;;;;;;;;;;5095620;28;20310;-70
2021/01/28 07:58:23;;;;;;;12.23;7.77;;;;;;;;;;5097205;28;20264;-70
2021/01/28 08:00:51;;;;;;;10.70;6.87;;;;;;;;;;5096793;28;20205;-70
2021/01/28 08:03:27;;;;;;;10.00;6.97;;;;;;;;;;5096923;28;20329;-69
2021/01/28 08:05:57;;;;;;;12.03;7.47;;;;;;;;;;5096333;28;20232;-70
2021/01/28 08:08:24;;;;;;;10.13;7.67;;;;;;;;;;5097112;28;20198;-70
2021/01/28 08:10:51;;;;;;;10.87;7.37;;;;;;;;;;5096698;28;20211;-69
2021/01/28 08:13:23;;;;;;;14.77;7.70;;;;;;;;;;5094098;28;20277;-69
2021/01/28 08:15:59;;;;;;;13.17;7.63;;;;;;;;;;5095955;28;20228;-69
2021/01/28 08:18:27;;;;;;;14.90;8.90;;;;;;;;;;5096735;28;20197;-69
2021/01/28 08:21:07;;;;;;;12.43;7.30;;;;;;;;;;5096302;28;20281;-69
2021/01/28 08:23:35;;;;;;;12.40;7.87;;;;;;;;;;5096599;28;20221;-69
2021/01/28 08:26:04;;;;;;;10.00;7.87;;;;;;;;;;5095996;28;20304;-69
2021/01/28 08:28:32;;;;;;;12.67;8.20;;;;;;;;;;5096846;28;20209;-69
2021/01/28 08:31:01;;;;;;;13.17;8.57;;;;;;;;;;5096481;28;20225;-69
2021/01/28 08:33:29;;;;;;;13.93;7.60;;;;;;;;;;5097068;28;20270;-69
2021/01/28 08:35:57;;;;;;;14.10;8.10;;;;;;;;;;5096501;28;20218;-69
2021/01/28 08:38:27;;;;;;;13.53;8.13;;;;;;;;;;5089386;28;20232;-68
2021/01/28 08:41:03;;;;;;;10.57;7.60;;;;;;;;;;5097011;28;20237;-70
2021/01/28 08:43:31;;;;;;;11.70;8.27;;;;;;;;;;5096732;28;20225;-71
2021/01/28 08:46:05;;;;;;;13.97;9.00;;;;;;;;;;5096667;28;20233;-70
2021/01/28 08:48:32;;;;;;;12.63;8.90;;;;;;;;;;5096797;28;20213;-68
2021/01/28 08:51:03;;;;;;;12.63;8.67;;;;;;;;;;5095687;28;20194;-68
2021/01/28 08:53:31;;;;;;;11.93;8.57;;;;;;;;;;5095231;28;20201;-68
2021/01/28 08:56:04;;;;;;;13.80;9.27;;;;;;;;;;5093639;28;20225;-69
2021/01/28 08:58:32;;;;;;;14.07;9.37;;;;;;;;;;5097526;28;20676;-69
2021/01/28 09:01:01;;;;;;;12.03;8.37;;;;;;;;;;5096878;28;20328;-69
2021/01/28 09:03:31;;;;;;;14.03;8.87;;;;;;;;;;5096700;28;20355;-70
2021/01/28 09:05:59;;;;;;;13.10;9.23;;;;;;;;;;5099176;28;20224;-70
2021/01/28 09:08:35;;;;;;;18.37;8.80;;;;;;;;;;5099650;28;20209;-70
2021/01/28 09:11:17;;;;;;;17.40;9.13;;;;;;;;;;5098116;28;20824;-70
2021/01/28 09:13:58;;;;;;;13.93;8.67;;;;;;;;;;5097817;28;20925;-70
2021/01/28 09:16:26;;;;;;;12.47;8.23;;;;;;;;;;5095724;28;20626;-67
2021/01/28 09:18:54;;;;;;;13.30;8.97;;;;;;;;;;5097949;28;20233;-68
2021/01/28 09:21:22;;;;;;;10.70;8.80;;;;;;;;;;5098336;28;20308;-70
2021/01/28 09:23:58;;;;;;;13.13;8.43;;;;;;;;;;5099549;28;20308;-69
2021/01/28 09:26:26;;;;;;;16.37;8.10;;;;;;;;;;5097207;28;20653;-69
2021/01/28 09:28:53;;;;;;;15.70;9.37;;;;;;;;;;5095396;28;20292;-68
2021/01/28 09:31:24;;;;;;;11.83;8.07;;;;;;;;;;5099618;28;20646;-68
2021/01/28 09:33:52;;;;;;;10.33;8.23;;;;;;;;;;5098920;28;20645;-68
2021/01/28 09:36:21;;;;;;;11.30;8.17;;;;;;;;;;5098043;28;20250;-69
2021/01/28 09:39:00;;;;;;;11.63;7.57;;;;;;;;;;5099118;28;20328;-69
2021/01/28 09:41:33;;;;;;;12.07;7.93;;;;;;;;;;5096339;28;20254;-67
2021/01/28 09:44:01;;;;;;;13.17;7.23;;;;;;;;;;5098980;28;20222;-67
2021/01/28 09:46:30;;;;;;;8.93;7.37;;;;;;;;;;5099582;28;20221;-68
2021/01/28 09:48:59;;;;;;;13.43;7.77;;;;;;;;;;5099215;28;20580;-67
2021/01/28 09:51:30;;;;;;;10.13;6.93;;;;;;;;;;5099476;28;20206;-69
2021/01/28 09:54:02;;;;;;;15.13;9.03;;;;;;;;;;5099114;28;20202;-68
2021/01/28 09:56:30;;;;;;;13.13;8.13;;;;;;;;;;5098900;28;20673;-68
2021/01/28 09:58:57;;;;;;;10.87;8.40;;;;;;;;;;5098103;28;20201;-69
2021/01/28 10:01:25;;;;;;;16.83;8.63;;;;;;;;;;5095661;28;20245;-68
2021/01/28 10:03:52;;;;;;;16.20;8.60;;;;;;;;;;5098657;28;20248;-69
2021/01/28 10:06:19;;;;;;;12.37;8.50;;;;;;;;;;5098943;28;20206;-69
2021/01/28 10:08:46;;;;;;;11.77;8.30;;;;;;;;;;5098721;28;20198;-69
2021/01/28 10:11:15;;;;;;;19.87;8.57;;;;;;;;;;5098828;28;20216;-69
2021/01/28 10:13:42;;;;;;;13.47;8.43;;;;;;;;;;5098434;28;20256;-68
2021/01/28 10:16:11;;;;;;;10.47;7.87;;;;;;;;;;5098791;28;20260;-68
2021/01/28 10:18:38;;;;;;;11.27;7.43;;;;;;;;;;5098727;28;20216;-67
2021/01/28 10:21:05;;;;;;;11.50;7.43;;;;;;;;;;5098498;28;20205;-69
2021/01/28 10:23:33;;;;;;;10.70;8.27;;;;;;;;;;5098092;28;20308;-67
2021/01/28 10:25:59;;;;;;;12.47;8.03;;;;;;;;;;5098224;28;20600;-67
2021/01/28 10:28:28;;;;;;;8.77;6.40;;;;;;;;;;5098338;28;20233;-69
2021/01/28 10:30:55;;;;;;;9.40;7.07;;;;;;;;;;5098394;28;20259;-69
2021/01/28 10:33:26;;;;;;;9.20;6.63;;;;;;;;;;5098634;28;20205;-68
2021/01/28 10:35:57;;;;;;;10.57;7.47;;;;;;;;;;5098069;28;20222;-69
2021/01/28 10:38:24;;;;;;;8.60;6.63;;;;;;;;;;5098484;28;20297;-67
2021/01/28 10:40:56;;;;;;;10.83;6.43;;;;;;;;;;5098220;28;20217;-68
2021/01/28 10:43:23;;;;;;;11.53;7.50;;;;;;;;;;5098291;28;20287;-68
2021/01/28 10:45:52;;;;;;;8.30;6.23;;;;;;;;;;5097049;28;20229;-68
2021/01/28 10:48:20;;;;;;;12.20;6.83;;;;;;;;;;5098212;28;20213;-67
2021/01/28 10:50:49;;;;;;;13.33;7.40;;;;;;;;;;5098067;28;20229;-66
2021/01/28 10:53:16;;;;;;;11.30;6.67;;;;;;;;;;5098154;28;20261;-66
2021/01/28 10:55:43;;;;;;;10.80;6.60;;;;;;;;;;5097662;28;20583;-66
2021/01/28 10:58:11;;;;;;;11.17;7.17;;;;;;;;;;5094445;28;20266;-68
2021/01/28 11:00:38;;;;;;;10.60;7.30;;;;;;;;;;5097787;28;20209;-66
2021/01/28 11:03:06;;;;;;;9.67;7.20;;;;;;;;;;5098040;28;20311;-66
2021/01/28 11:05:34;;;;;;;12.17;7.47;;;;;;;;;;5097622;28;20234;-66
2021/01/28 11:08:01;;;;;;;9.90;6.50;;;;;;;;;;5097457;28;20296;-67
2021/01/28 11:10:28;;;;;;;8.70;6.87;;;;;;;;;;5097940;28;20300;-66
2021/01/28 11:12:56;;;;;;;10.53;7.40;;;;;;;;;;5097643;28;20697;-67
2021/01/28 11:15:25;;;;;;;10.33;7.27;;;;;;;;;;5097302;28;20704;-66
2021/01/28 11:17:52;;;;;;;10.90;7.27;;;;;;;;;;5097540;28;20213;-67
2021/01/28 11:20:20;;;;;;;11.60;7.60;;;;;;;;;;5097536;28;20293;-69
2021/01/28 11:22:48;;;;;;;9.97;7.40;;;;;;;;;;5097371;28;20206;-68
2021/01/28 11:25:16;;;;;;;9.93;7.50;;;;;;;;;;5097376;28;20225;-68
2021/01/28 11:27:45;;;;;;;11.30;7.57;;;;;;;;;;5096867;28;20245;-66
2021/01/28 11:30:13;;;;;;;12.83;8.13;;;;;;;;;;5097324;28;20213;-68
2021/01/28 11:32:40;;;;;;;11.53;7.80;;;;;;;;;;5097512;28;20265;-67
2021/01/28 11:35:07;;;;;;;10.53;7.67;;;;;;;;;;5097404;28;20224;-68
2021/01/28 11:37:35;;;;;;;10.77;7.87;;;;;;;;;;5096789;28;20807;-67
2021/01/28 11:40:03;;;;;;;9.60;7.80;;;;;;;;;;5094391;28;20229;-67
2021/01/28 11:42:30;;;;;;;10.90;8.03;;;;;;;;;;5097027;28;20202;-66
2021/01/28 11:45:00;;;;;;;10.20;7.50;;;;;;;;;;5093142;28;20231;-66
2021/01/28 11:47:27;;;;;;;13.50;8.10;;;;;;;;;;5097171;28;20208;-66
2021/01/28 11:49:54;;;;;;;9.87;7.40;;;;;;;;;;5097489;28;20212;-67
2021/01/28 11:52:22;;;;;;;12.53;8.17;;;;;;;;;;5097361;28;20285;-67
2021/01/28 11:54:50;;;;;;;13.07;8.00;;;;;;;;;;5095845;28;20256;-67
2021/01/28 11:57:17;;;;;;;10.30;7.87;;;;;;;;;;5097254;28;20205;-67
2021/01/28 11:59:44;;;;;;;11.23;7.80;;;;;;;;;;5097016;28;20237;-68
2021/01/28 12:02:12;;;;;;;12.37;7.87;;;;;;;;;;5097392;28;20205;-67
2021/01/28 12:04:39;;;;;;;12.87;7.93;;;;;;;;;;5097194;28;20240;-66
2021/01/28 12:07:06;;;;;;;8.73;6.67;;;;;;;;;;5093648;28;20221;-66
2021/01/28 12:09:34;;;;;;;11.10;7.17;;;;;;;;;;5097140;28;20687;-66
2021/01/28 12:12:03;;;;;;;10.00;6.87;;;;;;;;;;5097456;28;20539;-67
2021/01/28 12:14:30;;;;;;;10.17;7.20;;;;;;;;;;5096173;28;20282;-67
2021/01/28 12:16:57;;;;;;;12.17;7.63;;;;;;;;;;5097052;28;20668;-66
2021/01/28 12:19:28;;;;;;;9.50;7.23;;;;;;;;;;5096779;28;20293;-67
2021/01/28 12:21:55;;;;;;;11.70;7.70;;;;;;;;;;5097149;28;20270;-69
2021/01/28 12:24:23;;;;;;;9.13;6.67;;;;;;;;;;5096876;28;20359;-69
2021/01/28 12:26:50;;;;;;;10.03;6.23;;;;;;;;;;5096689;28;20639;-66
2021/01/28 12:29:18;;;;;;;9.33;7.03;;;;;;;;;;5096623;28;20284;-66
2021/01/28 12:31:45;;;;;;;10.57;7.30;;;;;;;;;;5096834;28;20212;-67
2021/01/28 12:34:13;;;;;;;10.63;7.40;;;;;;;;;;5096717;28;20222;-67
2021/01/28 12:36:40;;;;;;;12.77;8.00;;;;;;;;;;5096644;28;20575;-67
2021/01/28 12:39:07;;;;;;;14.33;9.27;;;;;;;;;;5099247;28;20312;-67
2021/01/28 12:41:34;;;;;;;17.53;9.57;;;;;;;;;;5099350;28;20267;-67
2021/01/28 12:44:01;;;;;;;12.10;8.73;;;;;;;;;;5100471;28;20206;-66
2021/01/28 12:46:29;;;;;;;21.60;11.93;;;;;;;;;;5100452;28;20206;-67
2021/01/28 12:48:56;;;;;;;18.70;12.10;;;;;;;;;;5100486;28;20216;-67
2021/01/28 12:51:24;;;;;;;12.30;10.17;;;;;;;;;;5100150;28;20198;-67
2021/01/28 12:53:51;;;;;;;16.07;10.33;;;;;;;;;;5100680;28;20212;-67
2021/01/28 12:56:17;;;;;;;15.87;10.10;;;;;;;;;;5100329;28;20197;-67
2021/01/28 12:58:44;;;;;;;14.33;9.17;;;;;;;;;;5100036;28;20217;-66
2021/01/28 13:01:11;;;;;;;14.87;10.40;;;;;;;;;;5100046;28;20567;-66
2021/01/28 13:03:39;;;;;;;17.90;11.20;;;;;;;;;;5099344;28;20197;-68
2021/01/28 13:06:06;;;;;;;16.00;10.27;;;;;;;;;;5099301;28;20255;-67
2021/01/28 13:08:33;;;;;;;18.03;9.90;;;;;;;;;;5100262;28;20280;-68
2021/01/28 13:11:00;;;;;;;14.17;9.80;;;;;;;;;;5099486;28;20210;-67
2021/01/28 13:13:28;;;;;;;17.17;10.43;;;;;;;;;;5096160;28;20209;-68
2021/01/28 13:15:55;;;;;;;17.67;10.27;;;;;;;;;;5099778;28;20700;-67
2021/01/28 13:18:22;;;;;;;15.70;10.57;;;;;;;;;;5099933;28;20233;-67
2021/01/28 13:20:50;;;;;;;15.50;10.13;;;;;;;;;;5100179;28;20202;-67
2021/01/28 13:23:18;;;;;;;14.77;10.23;;;;;;;;;;5099654;28;20205;-67
2021/01/28 13:25:45;;;;;;;19.77;11.03;;;;;;;;;;5099570;28;20636;-68
2021/01/28 13:28:12;;;;;;;17.30;9.90;;;;;;;;;;5099794;28;20201;-68
2021/01/28 13:30:39;;;;;;;14.00;9.63;;;;;;;;;;5099656;28;20214;-68
2021/01/28 13:33:06;;;;;;;14.10;9.90;;;;;;;;;;5099426;28;20218;-67
2021/01/28 13:35:34;;;;;;;13.10;9.30;;;;;;;;;;5099441;28;20735;-67
2021/01/28 13:38:02;;;;;;;15.50;9.83;;;;;;;;;;5099217;28;20575;-68
2021/01/28 13:40:30;;;;;;;13.07;9.27;;;;;;;;;;5099618;28;20209;-67
2021/01/28 13:42:58;;;;;;;15.57;9.23;;;;;;;;;;5098275;28;20234;-68
2021/01/28 13:45:25;;;;;;;14.50;9.40;;;;;;;;;;5098037;28;20312;-67
2021/01/28 13:47:52;;;;;;;16.90;9.97;;;;;;;;;;5098950;28;20273;-68
2021/01/28 13:50:22;;;;;;;15.70;9.70;;;;;;;;;;5098832;28;20212;-69
2021/01/28 13:52:49;;;;;;;13.57;9.13;;;;;;;;;;5098306;28;20206;-68
2021/01/28 13:55:17;;;;;;;20.80;10.87;;;;;;;;;;5096988;28;20227;-68
2021/01/28 13:57:44;;;;;;;13.77;9.70;;;;;;;;;;5097930;28;20284;-68
2021/01/28 14:00:13;;;;;;;14.13;9.83;;;;;;;;;;5097619;28;20208;-66
2021/01/28 14:02:40;;;;;;;15.67;10.00;;;;;;;;;;5097629;28;20672;-66
2021/01/28 14:05:08;;;;;;;15.63;10.43;;;;;;;;;;5097701;28;20229;-66
2021/01/28 14:07:35;;;;;;;17.90;12.43;;;;;;;;;;5099229;28;20644;-69
2021/01/28 14:10:03;;;;;;;22.13;15.07;;;;;;;;;;5097354;28;20212;-68
2021/01/28 14:12:30;;;;;;;24.73;13.77;;;;;;;;;;5097744;28;20323;-68
2021/01/28 14:14:57;;;;;;;22.97;15.23;;;;;;;;;;5097403;28;20213;-68
2021/01/28 14:17:24;;;;;;;29.70;15.67;;;;;;;;;;5098714;28;20205;-68
2021/01/28 14:19:52;;;;;;;25.77;16.47;;;;;;;;;;5099141;28;20209;-68
2021/01/28 14:22:19;;;;;;;26.80;15.97;;;;;;;;;;5098916;28;20304;-68
2021/01/28 14:24:53;;;;;;;25.43;16.33;;;;;;;;;;5098180;28;20826;-68
2021/01/28 14:27:21;;;;;;;28.37;16.50;;;;;;;;;;5098401;28;20212;-66
2021/01/28 14:29:50;;;;;;;24.97;16.30;;;;;;;;;;5096904;28;20251;-66
2021/01/28 14:32:18;;;;;;;32.40;15.70;;;;;;;;;;5098590;28;20213;-66
2021/01/28 14:34:48;;;;;;;27.13;15.00;;;;;;;;;;5098195;28;20286;-67
2021/01/28 14:37:15;;;;;;;24.47;16.07;;;;;;;;;;5098387;28;20202;-67